createdAt,value
2019-02-18T00:01:24.507Z,99.90
2019-02-18T00:03:54.528Z,99.90
2019-02-18T00:06:24.567Z,99.90
2019-02-18T00:08:54.444Z,99.90
2019-02-18T00:11:24.358Z,99.90
2019-02-18T00:13:54.467Z,99.90
2019-02-18T00:16:24.382Z,99.90
2019-02-18T00:18:54.298Z,99.90
2019-02-18T00:21:24.305Z,99.90
2019-02-18T00:23:54.219Z,99.90
2019-02-18T00:26:24.616Z,99.90
2019-02-18T00:28:54.540Z,99.90
2019-02-18T00:31:24.747Z,99.90
2019-02-18T00:33:54.666Z,99.90
2019-02-18T00:36:25.067Z,99.90
2019-02-18T00:38:55.077Z,99.90
2019-02-18T00:41:25.209Z,99.90
2019-02-18T00:43:55.393Z,99.90
2019-02-18T00:46:25.355Z,99.90
2019-02-18T00:48:55.238Z,99.90
2019-02-18T00:51:25.238Z,99.90
2019-02-18T00:53:55.737Z,99.90
2019-02-18T00:56:25.650Z,99.90
2019-02-18T00:58:55.860Z,99.90
2019-02-18T01:01:25.771Z,99.90
2019-02-18T01:03:55.881Z,99.90
2019-02-18T01:06:25.795Z,99.90
2019-02-18T01:08:55.711Z,99.90
2019-02-18T01:11:25.720Z,99.90
2019-02-18T01:13:55.608Z,99.90
2019-02-18T01:16:25.743Z,99.90
2019-02-18T01:18:55.660Z,99.90
2019-02-18T01:21:25.569Z,99.90
2019-02-18T01:23:55.486Z,99.90
2019-02-18T01:26:25.398Z,99.90
2019-02-18T01:28:55.310Z,99.90
2019-02-18T01:31:25.245Z,99.90
2019-02-18T01:33:55.453Z,99.90
2019-02-18T01:36:25.468Z,99.90
2019-02-18T01:38:55.358Z,99.90
2019-02-18T01:41:25.270Z,99.90
2019-02-18T01:43:55.131Z,99.90
2019-02-18T01:46:25.096Z,99.90
2019-02-18T01:48:55.010Z,99.90
2019-02-18T01:51:24.927Z,99.90
2019-02-18T01:53:54.839Z,99.90
2019-02-18T01:56:24.751Z,99.90
2019-02-18T01:58:54.664Z,99.90
2019-02-18T02:01:24.578Z,99.90
2019-02-18T02:03:54.787Z,99.90
2019-02-18T02:06:25.091Z,99.90
2019-02-18T02:08:54.949Z,99.90
2019-02-18T02:11:24.920Z,99.90
2019-02-18T02:13:54.833Z,99.90
2019-02-18T02:16:24.845Z,99.90
2019-02-18T02:18:54.834Z,99.90
2019-02-18T02:21:25.425Z,99.90
2019-02-18T02:23:55.626Z,99.90
2019-02-18T02:26:25.596Z,99.90
2019-02-18T02:28:55.492Z,99.90
2019-02-18T02:31:25.558Z,99.90
2019-02-18T02:33:55.616Z,99.90
2019-02-18T02:36:25.534Z,99.90
2019-02-18T02:38:55.441Z,99.90
2019-02-18T02:41:25.363Z,99.90
2019-02-18T02:43:55.372Z,99.90
2019-02-18T02:46:25.291Z,99.90
2019-02-18T02:48:55.291Z,99.90
2019-02-18T02:51:25.205Z,99.90
2019-02-18T02:53:55.121Z,99.90
2019-02-18T02:56:25.523Z,99.90
2019-02-18T02:58:55.534Z,99.90
2019-02-18T03:01:25.447Z,99.90
2019-02-18T03:03:55.365Z,99.90
2019-02-18T03:06:25.493Z,99.90
2019-02-18T03:08:55.483Z,99.90
2019-02-18T03:11:25.397Z,99.90
2019-02-18T03:13:55.310Z,99.90
2019-02-18T03:16:25.324Z,99.90
2019-02-18T03:18:55.236Z,99.90
2019-02-18T03:21:25.150Z,99.90
2019-02-18T03:23:55.066Z,99.90
2019-02-18T03:26:24.977Z,99.90
2019-02-18T03:29:02.368Z,99.90
2019-02-18T03:31:32.280Z,99.90
2019-02-18T03:34:06.911Z,99.90
2019-02-18T03:36:37.015Z,99.90
2019-02-18T03:39:08.011Z,99.90
2019-02-18T03:41:40.919Z,99.90
2019-02-18T03:44:10.098Z,99.90
2019-02-18T03:46:40.011Z,99.90
2019-02-18T03:49:10.027Z,99.90
2019-02-18T03:51:40.238Z,99.90
2019-02-18T03:54:10.151Z,99.90
2019-02-18T03:56:40.061Z,99.90
2019-02-18T03:59:10.173Z,99.90
2019-02-18T04:01:40.388Z,99.90
2019-02-18T04:04:10.487Z,99.90
2019-02-18T04:06:40.400Z,99.90
2019-02-18T04:09:10.517Z,99.90
2019-02-18T04:11:40.423Z,99.90
2019-02-18T04:14:10.338Z,99.90
2019-02-18T04:16:40.252Z,99.90
2019-02-18T04:19:10.164Z,99.90
2019-02-18T04:21:40.277Z,99.90
2019-02-18T04:24:10.406Z,99.90
2019-02-18T04:26:41.484Z,99.90
2019-02-18T04:29:11.393Z,99.90
2019-02-18T04:31:41.307Z,99.90
2019-02-18T04:34:11.220Z,99.90
2019-02-18T04:36:41.143Z,99.90
2019-02-18T04:39:11.050Z,99.90
2019-02-18T04:41:41.253Z,99.90
2019-02-18T04:44:11.267Z,99.90
2019-02-18T04:46:41.181Z,99.90
2019-02-18T04:49:10.994Z,99.90
2019-02-18T04:51:41.102Z,99.90
2019-02-18T04:54:11.118Z,99.90
2019-02-18T04:56:41.523Z,99.90
2019-02-18T04:59:11.433Z,99.90
2019-02-18T05:01:41.741Z,99.90
2019-02-18T05:04:14.092Z,99.90
2019-02-18T05:06:43.642Z,99.90
2019-02-18T05:09:13.548Z,99.90
2019-02-18T05:11:43.462Z,99.90
2019-02-18T05:14:13.378Z,99.90
2019-02-18T05:16:43.286Z,99.90
2019-02-18T05:19:13.199Z,99.90
2019-02-18T05:21:43.408Z,99.90
2019-02-18T05:24:13.322Z,99.90
2019-02-18T05:26:43.628Z,99.90
2019-02-18T05:29:13.543Z,99.90
2019-02-18T05:31:43.750Z,99.90
2019-02-18T05:34:13.795Z,99.90
2019-02-18T05:36:44.263Z,99.90
2019-02-18T05:39:17.935Z,99.90
2019-02-18T05:41:45.862Z,99.90
2019-02-18T05:44:15.875Z,99.90
2019-02-18T05:46:46.082Z,99.90
2019-02-18T05:49:15.999Z,99.90
2019-02-18T05:51:45.941Z,99.90
2019-02-18T05:54:15.924Z,99.90
2019-02-18T05:56:45.837Z,99.90
2019-02-18T05:59:15.846Z,99.90
2019-02-18T06:01:45.759Z,99.90
2019-02-18T06:04:15.823Z,99.90
2019-02-18T06:06:45.786Z,99.90
2019-02-18T06:09:15.894Z,99.90
2019-02-18T06:11:45.817Z,99.90
2019-02-18T06:14:15.823Z,99.90
2019-02-18T06:16:45.737Z,99.90
2019-02-18T06:19:15.645Z,99.90
2019-02-18T06:21:45.954Z,99.90
2019-02-18T06:24:16.357Z,99.90
2019-02-18T06:26:46.274Z,99.90
2019-02-18T06:29:16.582Z,99.90
2019-02-18T06:31:46.497Z,99.90
2019-02-18T06:34:16.413Z,99.90
2019-02-18T06:36:46.319Z,99.90
2019-02-18T06:39:16.335Z,99.90
2019-02-18T06:41:46.251Z,99.90
2019-02-18T06:44:18.124Z,99.90
2019-02-18T06:46:49.492Z,99.90
2019-02-18T06:49:19.821Z,99.90
2019-02-18T06:51:49.731Z,99.90
2019-02-18T06:54:19.743Z,99.90
2019-02-18T06:56:54.180Z,99.90
2019-02-18T06:59:25.862Z,99.90
2019-02-18T07:01:57.220Z,99.90
2019-02-18T07:04:28.934Z,99.90
2019-02-18T07:07:00.617Z,99.90
2019-02-18T07:09:35.542Z,99.90
2019-02-18T07:12:07.031Z,99.90
2019-02-18T07:14:37.338Z,99.90
2019-02-18T07:17:10.347Z,99.90
2019-02-18T07:19:39.978Z,99.90
2019-02-18T07:22:09.926Z,99.90
2019-02-18T07:24:39.957Z,99.90
2019-02-18T07:27:09.853Z,99.90
2019-02-18T07:29:39.961Z,99.90
2019-02-18T07:32:09.895Z,99.90
2019-02-18T07:34:40.289Z,99.90
2019-02-18T07:37:10.490Z,99.90
2019-02-18T07:39:40.403Z,99.90
2019-02-18T07:42:10.512Z,99.90
2019-02-18T07:44:40.623Z,99.90
2019-02-18T07:47:10.538Z,99.90
2019-02-18T07:49:40.557Z,99.90
2019-02-18T07:52:10.659Z,99.90
2019-02-18T07:54:40.677Z,99.90
2019-02-18T07:57:10.583Z,99.90
2019-02-18T07:59:42.752Z,99.90
2019-02-18T08:02:12.179Z,99.90
2019-02-18T08:04:42.289Z,99.90
2019-02-18T08:07:12.283Z,99.90
2019-02-18T08:09:42.217Z,99.90
2019-02-18T08:12:12.523Z,99.90
2019-02-18T08:14:42.440Z,99.90
2019-02-18T08:17:12.352Z,99.90
2019-02-18T08:19:42.265Z,99.90
2019-02-18T08:22:12.274Z,99.90
2019-02-18T08:24:42.195Z,99.90
2019-02-18T08:27:12.407Z,99.90
2019-02-18T08:29:42.412Z,99.90
2019-02-18T08:32:12.683Z,99.90
2019-02-18T08:34:42.629Z,99.90
2019-02-18T08:37:12.611Z,99.90
2019-02-18T08:39:42.555Z,99.90
2019-02-18T08:42:12.761Z,99.90
2019-02-18T08:44:43.067Z,99.90
2019-02-18T08:47:13.696Z,99.90
2019-02-18T08:49:43.878Z,99.90
2019-02-18T08:52:14.088Z,99.90
2019-02-18T08:54:44.493Z,99.90
2019-02-18T08:57:14.405Z,99.90
2019-02-18T08:59:44.416Z,99.90
2019-02-18T09:02:14.357Z,99.90
2019-02-18T09:04:44.537Z,99.90
2019-02-18T09:07:14.455Z,99.90
2019-02-18T09:09:45.134Z,99.90
2019-02-18T09:12:15.461Z,99.90
2019-02-18T09:14:45.371Z,99.90
2019-02-18T09:17:15.286Z,99.90
2019-02-18T09:19:45.199Z,99.90
2019-02-18T09:22:33.100Z,99.90
2019-02-18T09:25:04.883Z,99.90
2019-02-18T09:27:34.893Z,99.90
2019-02-18T09:30:08.247Z,99.90
2019-02-18T09:32:38.163Z,99.90
2019-02-18T09:35:09.450Z,99.90
2019-02-18T09:37:39.661Z,99.90
2019-02-18T09:40:13.114Z,99.90
2019-02-18T09:42:43.321Z,99.90
2019-02-18T09:45:16.186Z,99.90
2019-02-18T09:47:46.097Z,99.90
2019-02-18T09:50:16.110Z,99.90
2019-02-18T09:52:46.023Z,99.90
2019-02-18T09:55:16.532Z,99.90
2019-02-18T09:57:46.535Z,99.90
2019-02-18T10:00:16.648Z,99.90
2019-02-18T10:02:46.565Z,99.90
2019-02-18T10:05:16.565Z,99.90
2019-02-18T10:07:46.977Z,99.90
2019-02-18T10:10:16.990Z,99.90
2019-02-18T10:12:46.902Z,99.90
2019-02-18T10:15:17.051Z,99.90
2019-02-18T10:17:47.024Z,99.90
2019-02-18T10:20:16.938Z,99.90
2019-02-18T10:22:46.850Z,99.90
2019-02-18T10:25:16.998Z,99.90
2019-02-18T10:27:46.977Z,99.90
2019-02-18T10:30:17.080Z,99.90
2019-02-18T10:32:47.191Z,99.90
2019-02-18T10:35:17.307Z,99.90
2019-02-18T10:37:54.840Z,99.90
2019-02-18T10:40:19.979Z,99.90
2019-02-18T10:42:49.892Z,99.90
2019-02-18T10:45:20.299Z,99.90
2019-02-18T10:47:50.433Z,99.90
2019-02-18T10:50:20.518Z,99.90
2019-02-18T10:52:50.441Z,99.90
2019-02-18T10:55:20.637Z,99.90
2019-02-18T10:57:50.552Z,99.90
2019-02-18T11:00:20.564Z,99.90
2019-02-18T11:02:51.069Z,99.90
2019-02-18T11:05:21.478Z,99.90
2019-02-18T11:07:51.493Z,99.90
2019-02-18T11:10:21.825Z,99.90
2019-02-18T11:12:51.718Z,99.90
2019-02-18T11:15:22.206Z,99.90
2019-02-18T11:17:52.120Z,99.90
2019-02-18T11:20:22.033Z,99.90
2019-02-18T11:22:52.244Z,99.90
2019-02-18T11:25:22.452Z,99.90
2019-02-18T11:27:52.363Z,99.90
2019-02-18T11:30:22.966Z,99.90
2019-02-18T11:32:53.187Z,99.90
2019-02-18T11:35:23.184Z,99.90
2019-02-18T11:37:53.098Z,99.90
2019-02-18T11:40:23.081Z,99.90
2019-02-18T11:42:53.321Z,99.70
2019-02-18T11:45:23.429Z,99.20
2019-02-18T11:47:53.839Z,98.50
2019-02-18T11:50:24.042Z,98.80
2019-02-18T11:52:53.967Z,99.10
2019-02-18T11:55:24.161Z,98.40
2019-02-18T11:57:53.976Z,97.50
2019-02-18T12:00:24.103Z,96.20
2019-02-18T12:03:02.909Z,96.30
2019-02-18T12:05:27.017Z,96.70
2019-02-18T12:07:57.774Z,96.40
2019-02-18T12:10:28.083Z,95.90
2019-02-18T12:12:58.570Z,96.30
2019-02-18T12:15:28.682Z,96.10
2019-02-18T12:17:59.517Z,95.80
2019-02-18T12:20:29.590Z,96.20
2019-02-18T12:22:59.603Z,95.50
2019-02-18T12:25:29.516Z,95.90
2019-02-18T12:27:59.724Z,95.00
2019-02-18T12:30:29.635Z,93.80
2019-02-18T12:32:59.549Z,94.00
2019-02-18T12:35:31.061Z,93.50
2019-02-18T12:38:01.737Z,92.70
2019-02-18T12:40:31.944Z,92.50
2019-02-18T12:43:01.857Z,92.10
2019-02-18T12:45:31.968Z,92.50
2019-02-18T12:48:02.049Z,93.00
2019-02-18T12:50:31.990Z,92.50
2019-02-18T12:53:02.007Z,92.90
2019-02-18T12:55:32.281Z,93.00
2019-02-18T12:58:02.949Z,92.60
2019-02-18T13:00:33.652Z,93.10
2019-02-18T13:03:03.623Z,93.20
2019-02-18T13:05:33.829Z,92.90
2019-02-18T13:08:04.299Z,93.10
2019-02-18T13:10:35.165Z,92.80
2019-02-18T13:13:05.145Z,92.50
2019-02-18T13:15:35.644Z,93.00
2019-02-18T13:20:35.573Z,93.10
2019-02-18T13:23:05.681Z,92.00
2019-02-18T13:25:35.598Z,92.40
2019-02-18T13:28:08.502Z,92.00
2019-02-18T13:30:37.979Z,92.80
2019-02-18T13:33:07.893Z,93.00
2019-02-18T13:35:37.967Z,93.00
2019-02-18T13:38:08.601Z,93.10
2019-02-18T13:40:38.533Z,93.10
2019-02-18T13:43:08.528Z,93.00
2019-02-18T13:45:38.541Z,93.30
2019-02-18T13:48:09.140Z,93.30
2019-02-18T13:50:39.156Z,93.00
2019-02-18T13:53:09.661Z,93.60
2019-02-18T13:55:39.665Z,93.90
2019-02-18T13:58:09.876Z,93.30
2019-02-18T14:00:40.067Z,93.40
2019-02-18T14:03:10.618Z,93.70
2019-02-18T14:05:40.696Z,94.10
2019-02-18T14:08:11.269Z,94.20
2019-02-18T14:10:41.548Z,93.60
2019-02-18T14:13:12.371Z,94.00
2019-02-18T14:15:42.315Z,94.00
2019-02-18T14:18:12.606Z,94.70
2019-02-18T14:20:42.830Z,93.90
2019-02-18T14:23:12.632Z,95.00
2019-02-18T14:25:42.571Z,94.50
2019-02-18T14:28:12.569Z,95.50
2019-02-18T14:30:42.485Z,95.60
2019-02-18T14:33:12.402Z,95.40
2019-02-18T14:35:42.310Z,95.90
2019-02-18T14:38:12.409Z,95.80
2019-02-18T14:40:42.433Z,96.30
2019-02-18T14:43:12.737Z,96.50
2019-02-18T14:45:42.650Z,97.10
2019-02-18T14:48:13.546Z,96.80
2019-02-18T14:50:44.641Z,97.30
2019-02-18T14:53:14.554Z,97.70
2019-02-18T14:55:44.854Z,98.10
2019-02-18T14:58:14.871Z,98.00
2019-02-18T15:00:45.572Z,97.70
2019-02-18T15:03:15.585Z,98.60
2019-02-18T15:05:45.595Z,99.00
2019-02-18T15:08:15.509Z,99.20
2019-02-18T15:10:45.618Z,99.90
2019-02-18T15:13:16.015Z,99.80
2019-02-18T15:15:46.336Z,99.80
2019-02-18T15:18:16.243Z,99.60
2019-02-18T15:20:46.746Z,99.50
2019-02-18T15:23:16.954Z,99.90
2019-02-18T15:25:46.870Z,99.90
2019-02-18T15:28:17.078Z,99.90
2019-02-18T15:30:47.382Z,99.90
2019-02-18T15:33:17.793Z,99.90
2019-02-18T15:35:48.097Z,99.90
2019-02-18T15:38:18.205Z,99.90
2019-02-18T15:40:48.314Z,99.90
2019-02-18T15:43:18.531Z,99.90
2019-02-18T15:45:48.438Z,99.90
2019-02-18T15:48:18.742Z,99.90
2019-02-18T15:50:48.654Z,99.90
2019-02-18T15:53:18.569Z,99.90
2019-02-18T15:55:48.485Z,99.90
2019-02-18T15:58:18.495Z,99.90
2019-02-18T16:00:48.407Z,99.90
2019-02-18T16:03:18.322Z,99.90
2019-02-18T16:05:48.233Z,99.90
2019-02-18T16:08:18.147Z,99.90
2019-02-18T16:10:48.266Z,99.90
2019-02-18T16:13:18.177Z,99.90
2019-02-18T16:15:48.379Z,99.90
2019-02-18T16:18:18.293Z,99.90
2019-02-18T16:20:49.092Z,99.90
2019-02-18T16:23:19.004Z,99.90
2019-02-18T16:25:49.310Z,99.90
2019-02-18T16:28:19.225Z,99.90
2019-02-18T16:30:49.136Z,99.90
2019-02-18T16:33:19.051Z,99.90
2019-02-18T16:35:48.963Z,99.90
2019-02-18T16:38:18.877Z,99.90
2019-02-18T16:40:49.159Z,99.90
2019-02-18T16:43:19.107Z,99.90
2019-02-18T16:45:49.993Z,99.90
2019-02-18T16:48:20.301Z,99.90
2019-02-18T16:50:50.213Z,99.90
2019-02-18T16:53:20.716Z,99.90
2019-02-18T16:55:51.164Z,99.90
2019-02-18T16:58:21.428Z,99.90
2019-02-18T17:00:57.322Z,99.90
2019-02-18T17:03:23.324Z,99.90
2019-02-18T17:05:54.215Z,99.90
2019-02-18T17:08:24.424Z,99.90
2019-02-18T17:10:54.536Z,99.90
2019-02-18T17:13:24.547Z,99.90
2019-02-18T17:15:54.463Z,99.90
2019-02-18T17:18:24.887Z,99.90
2019-02-18T17:20:55.367Z,99.90
2019-02-18T17:23:25.579Z,99.90
2019-02-18T17:25:55.684Z,99.90
2019-02-18T17:28:25.797Z,99.90
2019-02-18T17:30:56.201Z,99.90
2019-02-18T17:33:26.117Z,99.90
2019-02-18T17:35:56.026Z,99.90
2019-02-18T17:38:25.938Z,99.90
2019-02-18T17:40:55.954Z,99.90
2019-02-18T17:43:25.865Z,99.90
2019-02-18T17:45:55.975Z,99.90
2019-02-18T17:48:26.257Z,99.90
2019-02-18T17:50:56.196Z,99.90
2019-02-18T17:53:26.307Z,99.90
2019-02-18T17:55:56.807Z,99.90
2019-02-18T17:58:26.754Z,99.90
2019-02-18T18:00:57.916Z,99.90
2019-02-18T18:03:28.219Z,99.90
2019-02-18T18:05:58.241Z,99.90
2019-02-18T18:08:28.255Z,99.90
2019-02-18T18:10:58.280Z,99.90
2019-02-18T18:13:28.565Z,99.90
2019-02-18T18:15:58.672Z,99.90
2019-02-18T18:18:28.683Z,99.90
2019-02-18T18:20:58.695Z,99.90
2019-02-18T18:23:28.708Z,99.90
2019-02-18T18:25:59.016Z,99.90
2019-02-18T18:28:29.243Z,99.90
2019-02-18T18:30:59.528Z,99.90
2019-02-18T18:33:29.443Z,99.90
2019-02-18T18:35:59.875Z,99.90
2019-02-18T18:38:30.055Z,99.90
2019-02-18T18:41:00.162Z,99.90
2019-02-18T18:43:33.813Z,99.90
2019-02-18T18:46:01.865Z,99.90
2019-02-18T18:48:32.262Z,99.90
2019-02-18T18:51:02.174Z,99.90
2019-02-18T18:53:32.089Z,99.90
2019-02-18T18:56:02.201Z,99.90
2019-02-18T18:58:32.505Z,99.90
2019-02-18T19:01:02.615Z,99.90
2019-02-18T19:03:33.035Z,99.90
2019-02-18T19:06:03.361Z,99.90
2019-02-18T19:08:33.436Z,99.90
2019-02-18T19:11:03.842Z,99.90
2019-02-18T19:13:41.751Z,99.90
2019-02-18T19:16:05.830Z,99.90
2019-02-18T19:18:35.743Z,99.90
2019-02-18T19:21:05.657Z,99.90
2019-02-18T19:23:35.767Z,99.90
2019-02-18T19:26:05.714Z,99.90
2019-02-18T19:28:35.698Z,99.90
2019-02-18T19:31:05.900Z,99.90
2019-02-18T19:33:35.929Z,99.90
2019-02-18T19:36:06.139Z,99.90
2019-02-18T19:38:36.330Z,99.90
2019-02-18T19:41:06.549Z,99.90
2019-02-18T19:43:36.493Z,99.90
2019-02-18T19:46:06.858Z,99.90
2019-02-18T19:48:36.866Z,99.90
2019-02-18T19:51:07.372Z,99.90
2019-02-18T19:53:37.479Z,99.90
2019-02-18T19:56:07.503Z,99.90
2019-02-18T19:58:37.407Z,99.90
2019-02-18T20:01:07.329Z,99.90
2019-02-18T20:03:37.329Z,99.90
2019-02-18T20:06:07.546Z,99.90
2019-02-18T20:08:37.851Z,99.90
2019-02-18T20:11:07.757Z,99.90
2019-02-18T20:13:37.967Z,99.90
2019-02-18T20:16:08.031Z,99.90
2019-02-18T20:18:38.386Z,99.90
2019-02-18T20:21:08.744Z,99.90
2019-02-18T20:23:38.702Z,99.90
2019-02-18T20:26:08.615Z,99.90
2019-02-18T20:28:38.531Z,99.90
2019-02-18T20:31:08.736Z,99.90
2019-02-18T20:33:38.653Z,99.90
2019-02-18T20:36:08.564Z,99.90
2019-02-18T20:38:38.459Z,99.90
2019-02-18T20:41:09.034Z,99.90
2019-02-18T20:43:39.001Z,99.90
2019-02-18T20:46:09.117Z,99.90
2019-02-18T20:48:39.214Z,99.90
2019-02-18T20:51:09.060Z,99.90
2019-02-18T20:53:39.532Z,99.90
2019-02-18T20:56:09.547Z,99.90
2019-02-18T20:58:39.489Z,99.90
2019-02-18T21:01:09.601Z,99.90
2019-02-18T21:03:40.067Z,99.90
2019-02-18T21:06:10.079Z,99.90
2019-02-18T21:09:24.335Z,99.90
2019-02-18T21:12:03.633Z,99.90
2019-02-18T21:14:40.483Z,99.90
2019-02-18T21:17:16.493Z,99.90
2019-02-18T21:19:49.083Z,99.90
2019-02-18T21:22:21.583Z,99.90
2019-02-18T21:24:53.709Z,99.90
2019-02-18T21:27:33.383Z,99.90
2019-02-18T21:30:12.745Z,99.90
2019-02-18T21:32:46.554Z,99.90
2019-02-18T21:35:18.719Z,99.90
2019-02-18T21:37:56.038Z,99.90
2019-02-18T21:40:28.182Z,99.90
2019-02-18T21:43:03.913Z,99.90
2019-02-18T21:45:39.712Z,99.90
2019-02-18T21:48:12.459Z,99.90
2019-02-18T21:50:45.709Z,99.90
2019-02-18T21:53:17.697Z,99.90
2019-02-18T21:55:51.214Z,99.90
2019-02-18T21:58:22.993Z,99.90
2019-02-18T22:00:54.932Z,99.90
2019-02-18T22:03:25.116Z,99.90
2019-02-18T22:05:56.967Z,99.90
2019-02-18T22:08:29.073Z,99.90
2019-02-18T22:11:00.659Z,99.90
2019-02-18T22:13:30.668Z,99.90
2019-02-18T22:16:06.871Z,99.90
2019-02-18T22:18:38.461Z,99.90
2019-02-18T22:21:13.391Z,99.90
2019-02-18T22:23:48.144Z,99.90
2019-02-18T22:26:19.797Z,99.90
2019-02-18T22:28:51.403Z,99.90
2019-02-18T22:31:21.787Z,99.90
2019-02-18T22:33:53.566Z,99.90
2019-02-18T22:36:25.061Z,99.90
2019-02-18T22:38:57.960Z,99.90
2019-02-18T22:41:27.931Z,99.90
2019-02-18T22:43:58.237Z,99.90
2019-02-18T22:46:28.251Z,99.90
2019-02-18T22:48:58.653Z,99.90
2019-02-18T22:51:28.857Z,99.90
2019-02-18T22:53:59.113Z,99.90
2019-02-18T22:56:29.568Z,99.90
2019-02-18T22:58:59.578Z,99.90
2019-02-18T23:01:29.890Z,99.90
2019-02-18T23:03:59.946Z,99.90
2019-02-18T23:06:29.809Z,99.90
2019-02-18T23:09:00.033Z,99.90
2019-02-18T23:11:29.925Z,99.90
2019-02-18T23:13:59.838Z,99.90
2019-02-18T23:16:29.759Z,99.90
2019-02-18T23:19:00.168Z,99.90
2019-02-18T23:25:30.129Z,99.90
2019-02-18T23:28:00.057Z,99.90
2019-02-18T23:30:29.955Z,99.90
2019-02-18T23:33:00.754Z,99.90
2019-02-18T23:35:30.964Z,99.90
2019-02-18T23:38:00.874Z,99.90
2019-02-18T23:40:30.788Z,99.90
2019-02-18T23:43:00.711Z,99.90
2019-02-18T23:45:30.915Z,99.90
2019-02-18T23:48:00.830Z,99.90
2019-02-18T23:50:30.934Z,99.90
2019-02-18T23:53:00.849Z,99.90
2019-02-18T23:55:30.760Z,99.90
2019-02-18T23:58:00.970Z,99.90
